sensor_id;sensor_type;location;lat;lon;timestamp;P1;durP1;ratioP1;P2;durP2;ratioP2
64609;SDS011;51019;46.090;6.350;2022-12-19T00:01:10;33.85;;;15.43;;
64609;SDS011;51019;46.090;6.350;2022-12-19T00:03:42;34.13;;;16.08;;
64609;SDS011;51019;46.090;6.350;2022-12-19T00:06:11;31.23;;;15.65;;
64609;SDS011;51019;46.090;6.350;2022-12-19T00:08:39;30.92;;;14.60;;
64609;SDS011;51019;46.090;6.350;2022-12-19T00:11:08;32.90;;;15.70;;
64609;SDS011;51019;46.090;6.350;2022-12-19T00:13:38;31.05;;;15.90;;
64609;SDS011;51019;46.090;6.350;2022-12-19T00:16:07;31.88;;;14.98;;
64609;SDS011;51019;46.090;6.350;2022-12-19T00:21:09;35.50;;;15.77;;
64609;SDS011;51019;46.090;6.350;2022-12-19T00:23:38;33.58;;;15.43;;
64609;SDS011;51019;46.090;6.350;2022-12-19T00:26:06;32.60;;;15.13;;
64609;SDS011;51019;46.090;6.350;2022-12-19T00:28:35;32.85;;;15.80;;
64609;SDS011;51019;46.090;6.350;2022-12-19T00:31:02;30.13;;;15.95;;
64609;SDS011;51019;46.090;6.350;2022-12-19T00:33:32;31.80;;;14.57;;
64609;SDS011;51019;46.090;6.350;2022-12-19T00:36:00;33.10;;;16.08;;
64609;SDS011;51019;46.090;6.350;2022-12-19T00:38:29;31.60;;;14.95;;
64609;SDS011;51019;46.090;6.350;2022-12-19T00:41:05;32.70;;;15.95;;
64609;SDS011;51019;46.090;6.350;2022-12-19T00:43:33;28.88;;;14.45;;
64609;SDS011;51019;46.090;6.350;2022-12-19T00:46:02;31.20;;;15.73;;
64609;SDS011;51019;46.090;6.350;2022-12-19T00:48:30;32.65;;;15.77;;
64609;SDS011;51019;46.090;6.350;2022-12-19T00:51:02;33.65;;;15.52;;
64609;SDS011;51019;46.090;6.350;2022-12-19T00:53:31;29.65;;;15.05;;
64609;SDS011;51019;46.090;6.350;2022-12-19T00:56:00;31.38;;;14.18;;
64609;SDS011;51019;46.090;6.350;2022-12-19T00:58:27;30.48;;;14.38;;
64609;SDS011;51019;46.090;6.350;2022-12-19T01:00:56;32.80;;;15.13;;
64609;SDS011;51019;46.090;6.350;2022-12-19T01:03:24;31.50;;;14.75;;
64609;SDS011;51019;46.090;6.350;2022-12-19T01:05:55;31.02;;;14.75;;
64609;SDS011;51019;46.090;6.350;2022-12-19T01:08:22;32.80;;;15.38;;
64609;SDS011;51019;46.090;6.350;2022-12-19T01:10:49;39.65;;;19.85;;
64609;SDS011;51019;46.090;6.350;2022-12-19T01:13:18;39.42;;;18.17;;
64609;SDS011;51019;46.090;6.350;2022-12-19T01:15:46;42.78;;;18.60;;
64609;SDS011;51019;46.090;6.350;2022-12-19T01:18:14;38.42;;;19.33;;
64609;SDS011;51019;46.090;6.350;2022-12-19T01:20:43;36.70;;;17.45;;
64609;SDS011;51019;46.090;6.350;2022-12-19T01:23:13;34.42;;;16.73;;
64609;SDS011;51019;46.090;6.350;2022-12-19T01:25:42;32.75;;;15.38;;
64609;SDS011;51019;46.090;6.350;2022-12-19T01:28:14;35.97;;;16.40;;
64609;SDS011;51019;46.090;6.350;2022-12-19T01:30:41;29.10;;;13.43;;
64609;SDS011;51019;46.090;6.350;2022-12-19T01:33:10;32.03;;;14.82;;
64609;SDS011;51019;46.090;6.350;2022-12-19T01:35:39;27.05;;;13.25;;
64609;SDS011;51019;46.090;6.350;2022-12-19T01:38:09;29.92;;;14.32;;
64609;SDS011;51019;46.090;6.350;2022-12-19T01:40:47;28.30;;;13.23;;
64609;SDS011;51019;46.090;6.350;2022-12-19T01:43:16;29.17;;;13.35;;
64609;SDS011;51019;46.090;6.350;2022-12-19T01:45:44;26.90;;;12.70;;
64609;SDS011;51019;46.090;6.350;2022-12-19T01:48:15;29.98;;;13.88;;
64609;SDS011;51019;46.090;6.350;2022-12-19T01:50:48;30.33;;;12.88;;
64609;SDS011;51019;46.090;6.350;2022-12-19T01:53:20;25.88;;;13.02;;
64609;SDS011;51019;46.090;6.350;2022-12-19T01:55:50;33.00;;;13.80;;
64609;SDS011;51019;46.090;6.350;2022-12-19T01:58:18;29.48;;;14.15;;
64609;SDS011;51019;46.090;6.350;2022-12-19T02:00:46;31.17;;;15.13;;
64609;SDS011;51019;46.090;6.350;2022-12-19T02:03:15;25.50;;;12.18;;
64609;SDS011;51019;46.090;6.350;2022-12-19T02:05:48;27.92;;;13.80;;
64609;SDS011;51019;46.090;6.350;2022-12-19T02:08:18;28.02;;;13.77;;
64609;SDS011;51019;46.090;6.350;2022-12-19T02:10:48;28.95;;;13.35;;
64609;SDS011;51019;46.090;6.350;2022-12-19T02:13:16;27.67;;;12.90;;
64609;SDS011;51019;46.090;6.350;2022-12-19T02:15:45;29.63;;;13.65;;
64609;SDS011;51019;46.090;6.350;2022-12-19T02:18:23;27.27;;;13.65;;
64609;SDS011;51019;46.090;6.350;2022-12-19T02:21:11;29.00;;;12.57;;
64609;SDS011;51019;46.090;6.350;2022-12-19T02:26:47;23.42;;;11.73;;
64609;SDS011;51019;46.090;6.350;2022-12-19T02:29:37;27.60;;;11.75;;
64609;SDS011;51019;46.090;6.350;2022-12-19T02:32:18;27.27;;;13.10;;
64609;SDS011;51019;46.090;6.350;2022-12-19T02:34:52;27.63;;;12.75;;
64609;SDS011;51019;46.090;6.350;2022-12-19T02:37:27;30.80;;;12.13;;
64609;SDS011;51019;46.090;6.350;2022-12-19T02:40:00;28.70;;;11.73;;
64609;SDS011;51019;46.090;6.350;2022-12-19T02:42:32;29.70;;;13.35;;
64609;SDS011;51019;46.090;6.350;2022-12-19T02:45:04;26.50;;;12.25;;
64609;SDS011;51019;46.090;6.350;2022-12-19T02:47:36;27.13;;;12.65;;
64609;SDS011;51019;46.090;6.350;2022-12-19T02:50:05;24.95;;;12.00;;
64609;SDS011;51019;46.090;6.350;2022-12-19T02:52:43;30.27;;;14.38;;
64609;SDS011;51019;46.090;6.350;2022-12-19T02:55:13;25.45;;;12.10;;
64609;SDS011;51019;46.090;6.350;2022-12-19T03:00:43;28.70;;;13.13;;
64609;SDS011;51019;46.090;6.350;2022-12-19T03:03:24;28.63;;;12.45;;
64609;SDS011;51019;46.090;6.350;2022-12-19T03:05:59;27.33;;;11.60;;
64609;SDS011;51019;46.090;6.350;2022-12-19T03:08:36;27.63;;;11.90;;
64609;SDS011;51019;46.090;6.350;2022-12-19T03:11:11;27.40;;;12.57;;
64609;SDS011;51019;46.090;6.350;2022-12-19T03:13:40;27.52;;;13.00;;
64609;SDS011;51019;46.090;6.350;2022-12-19T03:16:11;25.05;;;12.65;;
64609;SDS011;51019;46.090;6.350;2022-12-19T03:18:41;24.80;;;10.25;;
64609;SDS011;51019;46.090;6.350;2022-12-19T03:21:10;24.83;;;10.68;;
64609;SDS011;51019;46.090;6.350;2022-12-19T03:23:41;23.23;;;11.30;;
64609;SDS011;51019;46.090;6.350;2022-12-19T03:26:11;25.02;;;11.65;;
64609;SDS011;51019;46.090;6.350;2022-12-19T03:28:44;22.20;;;9.45;;
64609;SDS011;51019;46.090;6.350;2022-12-19T03:31:17;20.05;;;9.88;;
64609;SDS011;51019;46.090;6.350;2022-12-19T03:33:50;24.33;;;9.40;;
64609;SDS011;51019;46.090;6.350;2022-12-19T03:36:23;21.10;;;9.30;;
64609;SDS011;51019;46.090;6.350;2022-12-19T03:38:53;16.75;;;6.85;;
64609;SDS011;51019;46.090;6.350;2022-12-19T03:41:23;20.45;;;7.72;;
64609;SDS011;51019;46.090;6.350;2022-12-19T03:44:06;19.85;;;7.75;;
64609;SDS011;51019;46.090;6.350;2022-12-19T03:46:38;22.25;;;8.60;;
64609;SDS011;51019;46.090;6.350;2022-12-19T03:49:11;19.80;;;8.07;;
64609;SDS011;51019;46.090;6.350;2022-12-19T03:51:40;19.70;;;7.63;;
64609;SDS011;51019;46.090;6.350;2022-12-19T03:54:17;15.73;;;5.60;;
64609;SDS011;51019;46.090;6.350;2022-12-19T03:56:48;15.55;;;5.78;;
64609;SDS011;51019;46.090;6.350;2022-12-19T03:59:21;17.02;;;5.22;;
64609;SDS011;51019;46.090;6.350;2022-12-19T04:01:57;15.48;;;5.20;;
64609;SDS011;51019;46.090;6.350;2022-12-19T04:04:27;15.75;;;5.55;;
64609;SDS011;51019;46.090;6.350;2022-12-19T04:06:57;16.88;;;5.43;;
64609;SDS011;51019;46.090;6.350;2022-12-19T04:09:27;15.98;;;5.50;;
64609;SDS011;51019;46.090;6.350;2022-12-19T04:11:57;15.80;;;5.57;;
64609;SDS011;51019;46.090;6.350;2022-12-19T04:14:28;15.25;;;6.13;;
64609;SDS011;51019;46.090;6.350;2022-12-19T04:17:00;17.27;;;5.85;;
64609;SDS011;51019;46.090;6.350;2022-12-19T04:19:36;14.30;;;5.53;;
64609;SDS011;51019;46.090;6.350;2022-12-19T04:22:11;15.77;;;5.63;;
64609;SDS011;51019;46.090;6.350;2022-12-19T04:27:11;13.50;;;3.72;;
64609;SDS011;51019;46.090;6.350;2022-12-19T04:29:41;15.43;;;5.13;;
64609;SDS011;51019;46.090;6.350;2022-12-19T04:32:10;13.88;;;4.75;;
64609;SDS011;51019;46.090;6.350;2022-12-19T04:34:45;15.60;;;4.90;;
64609;SDS011;51019;46.090;6.350;2022-12-19T04:37:12;11.60;;;3.70;;
64609;SDS011;51019;46.090;6.350;2022-12-19T04:39:44;13.55;;;4.03;;
64609;SDS011;51019;46.090;6.350;2022-12-19T04:42:11;15.68;;;5.32;;
64609;SDS011;51019;46.090;6.350;2022-12-19T04:44:39;15.75;;;5.45;;
64609;SDS011;51019;46.090;6.350;2022-12-19T04:47:06;16.63;;;5.55;;
64609;SDS011;51019;46.090;6.350;2022-12-19T04:49:33;15.82;;;5.88;;
64609;SDS011;51019;46.090;6.350;2022-12-19T04:52:03;16.73;;;5.97;;
64609;SDS011;51019;46.090;6.350;2022-12-19T04:54:30;15.77;;;5.70;;
64609;SDS011;51019;46.090;6.350;2022-12-19T04:56:57;15.93;;;5.32;;
64609;SDS011;51019;46.090;6.350;2022-12-19T04:59:25;18.85;;;6.55;;
64609;SDS011;51019;46.090;6.350;2022-12-19T05:01:52;16.05;;;6.25;;
64609;SDS011;51019;46.090;6.350;2022-12-19T05:04:20;18.77;;;6.50;;
64609;SDS011;51019;46.090;6.350;2022-12-19T05:06:49;20.77;;;8.88;;
64609;SDS011;51019;46.090;6.350;2022-12-19T05:09:18;22.05;;;8.43;;
64609;SDS011;51019;46.090;6.350;2022-12-19T05:11:45;20.20;;;7.25;;
64609;SDS011;51019;46.090;6.350;2022-12-19T05:14:12;14.38;;;4.60;;
64609;SDS011;51019;46.090;6.350;2022-12-19T05:16:40;14.32;;;4.60;;
64609;SDS011;51019;46.090;6.350;2022-12-19T05:19:09;16.63;;;6.07;;
64609;SDS011;51019;46.090;6.350;2022-12-19T05:21:37;13.73;;;4.82;;
64609;SDS011;51019;46.090;6.350;2022-12-19T05:24:04;13.48;;;5.03;;
64609;SDS011;51019;46.090;6.350;2022-12-19T05:26:34;14.32;;;5.63;;
64609;SDS011;51019;46.090;6.350;2022-12-19T05:29:01;17.05;;;5.32;;
64609;SDS011;51019;46.090;6.350;2022-12-19T05:31:29;15.43;;;4.97;;
64609;SDS011;51019;46.090;6.350;2022-12-19T05:33:59;15.07;;;5.15;;
64609;SDS011;51019;46.090;6.350;2022-12-19T05:36:29;16.02;;;5.40;;
64609;SDS011;51019;46.090;6.350;2022-12-19T05:38:57;14.10;;;4.60;;
64609;SDS011;51019;46.090;6.350;2022-12-19T05:41:25;15.13;;;4.75;;
64609;SDS011;51019;46.090;6.350;2022-12-19T05:43:55;15.55;;;5.05;;
64609;SDS011;51019;46.090;6.350;2022-12-19T05:46:22;14.30;;;5.35;;
64609;SDS011;51019;46.090;6.350;2022-12-19T05:48:51;15.23;;;5.45;;
64609;SDS011;51019;46.090;6.350;2022-12-19T05:51:20;15.88;;;6.00;;
64609;SDS011;51019;46.090;6.350;2022-12-19T05:53:47;13.57;;;5.32;;
64609;SDS011;51019;46.090;6.350;2022-12-19T05:56:15;13.60;;;5.45;;
64609;SDS011;51019;46.090;6.350;2022-12-19T05:58:44;15.70;;;6.32;;
64609;SDS011;51019;46.090;6.350;2022-12-19T06:01:15;18.00;;;6.45;;
64609;SDS011;51019;46.090;6.350;2022-12-19T06:03:43;16.08;;;6.75;;
64609;SDS011;51019;46.090;6.350;2022-12-19T06:06:12;16.98;;;6.35;;
64609;SDS011;51019;46.090;6.350;2022-12-19T06:08:40;16.45;;;7.18;;
64609;SDS011;51019;46.090;6.350;2022-12-19T06:11:09;58.55;;;19.20;;
64609;SDS011;51019;46.090;6.350;2022-12-19T06:13:38;26.08;;;9.07;;
64609;SDS011;51019;46.090;6.350;2022-12-19T06:16:08;16.88;;;6.65;;
64609;SDS011;51019;46.090;6.350;2022-12-19T06:18:39;18.83;;;7.05;;
64609;SDS011;51019;46.090;6.350;2022-12-19T06:21:09;21.13;;;7.63;;
64609;SDS011;51019;46.090;6.350;2022-12-19T06:23:38;23.33;;;7.82;;
64609;SDS011;51019;46.090;6.350;2022-12-19T06:26:06;21.55;;;7.93;;
64609;SDS011;51019;46.090;6.350;2022-12-19T06:28:35;21.60;;;8.93;;
64609;SDS011;51019;46.090;6.350;2022-12-19T06:31:03;22.08;;;9.10;;
64609;SDS011;51019;46.090;6.350;2022-12-19T06:33:32;20.80;;;8.45;;
64609;SDS011;51019;46.090;6.350;2022-12-19T06:36:02;24.42;;;9.82;;
64609;SDS011;51019;46.090;6.350;2022-12-19T06:38:34;23.25;;;9.07;;
64609;SDS011;51019;46.090;6.350;2022-12-19T06:41:07;20.98;;;9.15;;
64609;SDS011;51019;46.090;6.350;2022-12-19T06:43:52;21.38;;;8.57;;
64609;SDS011;51019;46.090;6.350;2022-12-19T06:46:19;22.27;;;9.02;;
64609;SDS011;51019;46.090;6.350;2022-12-19T06:48:49;22.05;;;9.00;;
64609;SDS011;51019;46.090;6.350;2022-12-19T06:51:19;24.10;;;8.60;;
64609;SDS011;51019;46.090;6.350;2022-12-19T06:53:47;17.27;;;7.53;;
64609;SDS011;51019;46.090;6.350;2022-12-19T06:56:15;19.05;;;7.40;;
64609;SDS011;51019;46.090;6.350;2022-12-19T06:58:43;19.33;;;7.90;;
64609;SDS011;51019;46.090;6.350;2022-12-19T07:01:15;19.35;;;8.23;;
64609;SDS011;51019;46.090;6.350;2022-12-19T07:03:45;20.40;;;7.28;;
64609;SDS011;51019;46.090;6.350;2022-12-19T07:06:16;19.98;;;7.57;;
64609;SDS011;51019;46.090;6.350;2022-12-19T07:08:45;21.63;;;7.25;;
64609;SDS011;51019;46.090;6.350;2022-12-19T07:11:13;20.92;;;7.22;;
64609;SDS011;51019;46.090;6.350;2022-12-19T07:13:40;19.05;;;7.45;;
64609;SDS011;51019;46.090;6.350;2022-12-19T07:16:08;19.25;;;6.97;;
64609;SDS011;51019;46.090;6.350;2022-12-19T07:18:36;19.27;;;7.10;;
64609;SDS011;51019;46.090;6.350;2022-12-19T07:21:05;24.20;;;10.25;;
64609;SDS011;51019;46.090;6.350;2022-12-19T07:23:35;18.15;;;7.70;;
64609;SDS011;51019;46.090;6.350;2022-12-19T07:26:06;21.55;;;7.85;;
64609;SDS011;51019;46.090;6.350;2022-12-19T07:28:33;21.83;;;7.47;;
64609;SDS011;51019;46.090;6.350;2022-12-19T07:31:02;21.65;;;7.68;;
64609;SDS011;51019;46.090;6.350;2022-12-19T07:33:30;17.20;;;6.50;;
64609;SDS011;51019;46.090;6.350;2022-12-19T07:35:58;49.63;;;38.58;;
64609;SDS011;51019;46.090;6.350;2022-12-19T07:38:25;34.75;;;21.23;;
64609;SDS011;51019;46.090;6.350;2022-12-19T07:40:52;21.63;;;10.90;;
64609;SDS011;51019;46.090;6.350;2022-12-19T07:43:21;26.50;;;13.07;;
64609;SDS011;51019;46.090;6.350;2022-12-19T07:45:52;57.90;;;25.13;;
64609;SDS011;51019;46.090;6.350;2022-12-19T07:48:21;35.42;;;16.92;;
64609;SDS011;51019;46.090;6.350;2022-12-19T07:50:50;38.30;;;17.92;;
64609;SDS011;51019;46.090;6.350;2022-12-19T07:53:17;28.13;;;14.38;;
64609;SDS011;51019;46.090;6.350;2022-12-19T07:55:45;28.92;;;14.05;;
64609;SDS011;51019;46.090;6.350;2022-12-19T07:58:16;28.42;;;13.43;;
64609;SDS011;51019;46.090;6.350;2022-12-19T08:00:46;23.30;;;11.40;;
64609;SDS011;51019;46.090;6.350;2022-12-19T08:03:21;19.88;;;9.30;;
64609;SDS011;51019;46.090;6.350;2022-12-19T08:05:48;19.92;;;6.85;;
64609;SDS011;51019;46.090;6.350;2022-12-19T08:08:15;20.30;;;7.07;;
64609;SDS011;51019;46.090;6.350;2022-12-19T08:10:43;19.20;;;7.10;;
64609;SDS011;51019;46.090;6.350;2022-12-19T08:13:15;16.35;;;6.55;;
64609;SDS011;51019;46.090;6.350;2022-12-19T08:15:43;16.23;;;5.65;;
64609;SDS011;51019;46.090;6.350;2022-12-19T08:18:14;15.88;;;5.78;;
64609;SDS011;51019;46.090;6.350;2022-12-19T08:20:43;18.38;;;6.55;;
64609;SDS011;51019;46.090;6.350;2022-12-19T08:23:12;18.75;;;7.13;;
64609;SDS011;51019;46.090;6.350;2022-12-19T08:25:39;16.35;;;6.90;;
64609;SDS011;51019;46.090;6.350;2022-12-19T08:28:07;18.80;;;7.75;;
64609;SDS011;51019;46.090;6.350;2022-12-19T08:30:36;20.10;;;7.95;;
64609;SDS011;51019;46.090;6.350;2022-12-19T08:33:04;20.10;;;7.20;;
64609;SDS011;51019;46.090;6.350;2022-12-19T08:35:34;16.67;;;6.80;;
64609;SDS011;51019;46.090;6.350;2022-12-19T08:38:02;20.05;;;8.10;;
64609;SDS011;51019;46.090;6.350;2022-12-19T08:40:30;21.13;;;9.30;;
64609;SDS011;51019;46.090;6.350;2022-12-19T08:42:58;30.35;;;13.35;;
64609;SDS011;51019;46.090;6.350;2022-12-19T08:45:25;22.92;;;9.75;;
64609;SDS011;51019;46.090;6.350;2022-12-19T08:47:53;22.75;;;11.32;;
64609;SDS011;51019;46.090;6.350;2022-12-19T08:50:23;24.50;;;11.73;;
64609;SDS011;51019;46.090;6.350;2022-12-19T08:52:52;23.77;;;11.07;;
64609;SDS011;51019;46.090;6.350;2022-12-19T08:55:20;25.05;;;12.10;;
64609;SDS011;51019;46.090;6.350;2022-12-19T08:57:49;27.30;;;12.52;;
64609;SDS011;51019;46.090;6.350;2022-12-19T09:00:17;23.58;;;11.75;;
64609;SDS011;51019;46.090;6.350;2022-12-19T09:02:45;26.20;;;11.55;;
64609;SDS011;51019;46.090;6.350;2022-12-19T09:08:37;23.08;;;11.00;;
64609;SDS011;51019;46.090;6.350;2022-12-19T09:11:08;23.92;;;11.60;;
64609;SDS011;51019;46.090;6.350;2022-12-19T09:13:38;23.83;;;12.18;;
64609;SDS011;51019;46.090;6.350;2022-12-19T09:16:06;28.02;;;10.90;;
64609;SDS011;51019;46.090;6.350;2022-12-19T09:18:39;18.63;;;9.40;;
64609;SDS011;51019;46.090;6.350;2022-12-19T09:21:20;22.85;;;10.82;;
64609;SDS011;51019;46.090;6.350;2022-12-19T09:23:52;22.05;;;10.45;;
64609;SDS011;51019;46.090;6.350;2022-12-19T09:26:20;22.55;;;11.20;;
64609;SDS011;51019;46.090;6.350;2022-12-19T09:28:49;32.22;;;17.85;;
64609;SDS011;51019;46.090;6.350;2022-12-19T09:31:25;21.73;;;11.23;;
64609;SDS011;51019;46.090;6.350;2022-12-19T09:37:04;30.23;;;15.93;;
64609;SDS011;51019;46.090;6.350;2022-12-19T09:39:37;29.37;;;14.53;;
64609;SDS011;51019;46.090;6.350;2022-12-19T09:42:08;29.35;;;15.55;;
64609;SDS011;51019;46.090;6.350;2022-12-19T09:47:46;28.42;;;16.15;;
64609;SDS011;51019;46.090;6.350;2022-12-19T09:50:20;25.48;;;12.98;;
64609;SDS011;51019;46.090;6.350;2022-12-19T09:52:56;23.25;;;10.60;;
64609;SDS011;51019;46.090;6.350;2022-12-19T09:55:32;23.98;;;10.00;;
64609;SDS011;51019;46.090;6.350;2022-12-19T09:58:04;20.90;;;9.80;;
64609;SDS011;51019;46.090;6.350;2022-12-19T10:00:36;26.15;;;10.50;;
64609;SDS011;51019;46.090;6.350;2022-12-19T10:03:12;22.80;;;10.32;;
64609;SDS011;51019;46.090;6.350;2022-12-19T10:05:50;21.40;;;10.32;;
64609;SDS011;51019;46.090;6.350;2022-12-19T10:08:22;29.75;;;11.13;;
64609;SDS011;51019;46.090;6.350;2022-12-19T10:11:15;24.92;;;10.40;;
64609;SDS011;51019;46.090;6.350;2022-12-19T10:14:07;24.92;;;10.75;;
64609;SDS011;51019;46.090;6.350;2022-12-19T10:16:49;25.73;;;11.18;;
64609;SDS011;51019;46.090;6.350;2022-12-19T10:19:26;26.52;;;11.77;;
64609;SDS011;51019;46.090;6.350;2022-12-19T10:22:03;42.22;;;13.38;;
64609;SDS011;51019;46.090;6.350;2022-12-19T10:28:57;24.02;;;9.60;;
64609;SDS011;51019;46.090;6.350;2022-12-19T10:32:21;24.05;;;9.93;;
64609;SDS011;51019;46.090;6.350;2022-12-19T10:38:51;22.88;;;10.27;;
64609;SDS011;51019;46.090;6.350;2022-12-19T10:41:30;23.35;;;11.20;;
64609;SDS011;51019;46.090;6.350;2022-12-19T10:44:00;22.73;;;10.45;;
64609;SDS011;51019;46.090;6.350;2022-12-19T10:46:37;22.88;;;10.43;;
64609;SDS011;51019;46.090;6.350;2022-12-19T10:49:09;21.65;;;10.20;;
64609;SDS011;51019;46.090;6.350;2022-12-19T10:51:51;23.63;;;10.55;;
64609;SDS011;51019;46.090;6.350;2022-12-19T10:54:23;22.88;;;10.48;;
64609;SDS011;51019;46.090;6.350;2022-12-19T10:56:51;24.63;;;11.05;;
64609;SDS011;51019;46.090;6.350;2022-12-19T10:59:22;26.77;;;12.48;;
64609;SDS011;51019;46.090;6.350;2022-12-19T11:01:50;26.25;;;12.57;;
64609;SDS011;51019;46.090;6.350;2022-12-19T11:04:25;23.85;;;11.18;;
64609;SDS011;51019;46.090;6.350;2022-12-19T11:07:04;24.17;;;10.82;;
64609;SDS011;51019;46.090;6.350;2022-12-19T11:09:46;22.00;;;10.20;;
64609;SDS011;51019;46.090;6.350;2022-12-19T11:12:16;23.50;;;10.38;;
64609;SDS011;51019;46.090;6.350;2022-12-19T11:14:50;27.63;;;12.43;;
64609;SDS011;51019;46.090;6.350;2022-12-19T11:17:23;23.23;;;10.93;;
64609;SDS011;51019;46.090;6.350;2022-12-19T11:19:52;22.50;;;10.13;;
64609;SDS011;51019;46.090;6.350;2022-12-19T11:22:23;21.35;;;8.88;;
64609;SDS011;51019;46.090;6.350;2022-12-19T11:24:58;19.95;;;9.65;;
64609;SDS011;51019;46.090;6.350;2022-12-19T11:27:36;23.05;;;8.75;;
64609;SDS011;51019;46.090;6.350;2022-12-19T11:30:17;28.23;;;10.30;;
64609;SDS011;51019;46.090;6.350;2022-12-19T11:32:48;20.58;;;9.52;;
64609;SDS011;51019;46.090;6.350;2022-12-19T11:35:43;20.10;;;9.07;;
64609;SDS011;51019;46.090;6.350;2022-12-19T11:38:19;20.83;;;9.82;;
64609;SDS011;51019;46.090;6.350;2022-12-19T11:40:55;20.17;;;9.88;;
64609;SDS011;51019;46.090;6.350;2022-12-19T11:46:01;24.83;;;11.65;;
64609;SDS011;51019;46.090;6.350;2022-12-19T11:48:36;24.50;;;11.20;;
64609;SDS011;51019;46.090;6.350;2022-12-19T11:51:16;24.05;;;10.90;;
64609;SDS011;51019;46.090;6.350;2022-12-19T11:53:51;23.85;;;10.80;;
64609;SDS011;51019;46.090;6.350;2022-12-19T11:56:27;21.23;;;9.55;;
64609;SDS011;51019;46.090;6.350;2022-12-19T11:58:58;26.95;;;11.65;;
64609;SDS011;51019;46.090;6.350;2022-12-19T12:07:36;23.55;;;10.55;;
64609;SDS011;51019;46.090;6.350;2022-12-19T12:10:13;20.70;;;9.48;;
64609;SDS011;51019;46.090;6.350;2022-12-19T12:12:45;27.55;;;13.52;;
64609;SDS011;51019;46.090;6.350;2022-12-19T12:15:29;27.70;;;13.35;;
64609;SDS011;51019;46.090;6.350;2022-12-19T12:18:11;24.15;;;12.98;;
64609;SDS011;51019;46.090;6.350;2022-12-19T12:20:51;23.42;;;10.52;;
64609;SDS011;51019;46.090;6.350;2022-12-19T12:23:31;19.25;;;7.13;;
64609;SDS011;51019;46.090;6.350;2022-12-19T12:26:05;18.90;;;6.72;;
64609;SDS011;51019;46.090;6.350;2022-12-19T12:28:47;18.88;;;7.05;;
64609;SDS011;51019;46.090;6.350;2022-12-19T12:31:44;19.25;;;7.28;;
64609;SDS011;51019;46.090;6.350;2022-12-19T12:34:27;16.67;;;8.23;;
64609;SDS011;51019;46.090;6.350;2022-12-19T12:37:18;20.45;;;7.95;;
64609;SDS011;51019;46.090;6.350;2022-12-19T12:40:03;19.50;;;6.68;;
64609;SDS011;51019;46.090;6.350;2022-12-19T12:42:49;19.20;;;7.25;;
64609;SDS011;51019;46.090;6.350;2022-12-19T12:45:30;18.67;;;6.68;;
64609;SDS011;51019;46.090;6.350;2022-12-19T12:48:09;17.35;;;6.90;;
64609;SDS011;51019;46.090;6.350;2022-12-19T12:50:50;21.20;;;8.50;;
64609;SDS011;51019;46.090;6.350;2022-12-19T12:53:23;22.02;;;8.60;;
64609;SDS011;51019;46.090;6.350;2022-12-19T12:58:44;21.88;;;8.77;;
64609;SDS011;51019;46.090;6.350;2022-12-19T13:01:34;20.85;;;7.55;;
64609;SDS011;51019;46.090;6.350;2022-12-19T13:04:17;21.00;;;7.47;;
64609;SDS011;51019;46.090;6.350;2022-12-19T13:07:01;17.17;;;7.43;;
64609;SDS011;51019;46.090;6.350;2022-12-19T13:09:39;24.08;;;8.45;;
64609;SDS011;51019;46.090;6.350;2022-12-19T13:12:15;18.83;;;7.80;;
64609;SDS011;51019;46.090;6.350;2022-12-19T13:21:06;18.23;;;8.02;;
64609;SDS011;51019;46.090;6.350;2022-12-19T13:23:46;19.20;;;7.78;;
64609;SDS011;51019;46.090;6.350;2022-12-19T13:26:41;17.90;;;6.40;;
64609;SDS011;51019;46.090;6.350;2022-12-19T13:29:26;21.35;;;7.57;;
64609;SDS011;51019;46.090;6.350;2022-12-19T13:32:10;18.25;;;7.10;;
64609;SDS011;51019;46.090;6.350;2022-12-19T13:34:51;18.67;;;6.82;;
64609;SDS011;51019;46.090;6.350;2022-12-19T13:37:26;18.10;;;6.80;;
64609;SDS011;51019;46.090;6.350;2022-12-19T13:46:16;21.10;;;7.53;;
64609;SDS011;51019;46.090;6.350;2022-12-19T13:49:05;18.88;;;7.43;;
64609;SDS011;51019;46.090;6.350;2022-12-19T13:51:46;22.13;;;9.13;;
64609;SDS011;51019;46.090;6.350;2022-12-19T13:54:26;21.30;;;8.35;;
64609;SDS011;51019;46.090;6.350;2022-12-19T13:57:01;22.70;;;8.25;;
64609;SDS011;51019;46.090;6.350;2022-12-19T13:59:37;19.08;;;8.35;;
64609;SDS011;51019;46.090;6.350;2022-12-19T14:02:07;24.63;;;7.82;;
64609;SDS011;51019;46.090;6.350;2022-12-19T14:04:45;18.58;;;7.75;;
64609;SDS011;51019;46.090;6.350;2022-12-19T14:07:21;18.77;;;8.10;;
64609;SDS011;51019;46.090;6.350;2022-12-19T14:10:02;20.65;;;7.63;;
64609;SDS011;51019;46.090;6.350;2022-12-19T14:12:37;19.08;;;7.20;;
64609;SDS011;51019;46.090;6.350;2022-12-19T14:15:29;17.15;;;6.68;;
64609;SDS011;51019;46.090;6.350;2022-12-19T14:18:00;20.98;;;7.75;;
64609;SDS011;51019;46.090;6.350;2022-12-19T14:20:37;19.45;;;7.88;;
64609;SDS011;51019;46.090;6.350;2022-12-19T14:26:37;20.42;;;6.28;;
64609;SDS011;51019;46.090;6.350;2022-12-19T14:29:07;16.58;;;6.75;;
64609;SDS011;51019;46.090;6.350;2022-12-19T14:31:56;17.67;;;6.18;;
64609;SDS011;51019;46.090;6.350;2022-12-19T14:34:26;15.85;;;6.00;;
64609;SDS011;51019;46.090;6.350;2022-12-19T14:36:58;20.20;;;6.18;;
64609;SDS011;51019;46.090;6.350;2022-12-19T14:39:27;16.77;;;6.10;;
64609;SDS011;51019;46.090;6.350;2022-12-19T14:42:11;18.02;;;5.72;;
64609;SDS011;51019;46.090;6.350;2022-12-19T14:44:58;17.55;;;5.82;;
64609;SDS011;51019;46.090;6.350;2022-12-19T14:48:00;17.35;;;6.13;;
64609;SDS011;51019;46.090;6.350;2022-12-19T14:50:30;15.25;;;5.72;;
64609;SDS011;51019;46.090;6.350;2022-12-19T14:53:06;17.27;;;5.70;;
64609;SDS011;51019;46.090;6.350;2022-12-19T14:55:40;16.17;;;5.45;;
64609;SDS011;51019;46.090;6.350;2022-12-19T14:58:27;15.52;;;5.38;;
64609;SDS011;51019;46.090;6.350;2022-12-19T15:04:12;15.40;;;4.95;;
64609;SDS011;51019;46.090;6.350;2022-12-19T15:06:44;17.08;;;5.95;;
64609;SDS011;51019;46.090;6.350;2022-12-19T15:09:21;18.50;;;6.18;;
64609;SDS011;51019;46.090;6.350;2022-12-19T15:11:52;16.08;;;6.03;;
64609;SDS011;51019;46.090;6.350;2022-12-19T15:14:41;19.13;;;6.72;;
64609;SDS011;51019;46.090;6.350;2022-12-19T15:17:17;18.05;;;6.63;;
64609;SDS011;51019;46.090;6.350;2022-12-19T15:19:49;18.15;;;6.68;;
64609;SDS011;51019;46.090;6.350;2022-12-19T15:22:17;21.80;;;7.43;;
64609;SDS011;51019;46.090;6.350;2022-12-19T15:24:45;24.67;;;9.18;;
64609;SDS011;51019;46.090;6.350;2022-12-19T15:27:16;23.45;;;9.75;;
64609;SDS011;51019;46.090;6.350;2022-12-19T15:29:46;19.95;;;7.18;;
64609;SDS011;51019;46.090;6.350;2022-12-19T15:32:30;19.35;;;6.80;;
64609;SDS011;51019;46.090;6.350;2022-12-19T15:35:00;19.30;;;6.55;;
64609;SDS011;51019;46.090;6.350;2022-12-19T15:37:28;19.75;;;7.38;;
64609;SDS011;51019;46.090;6.350;2022-12-19T15:39:56;17.67;;;6.35;;
64609;SDS011;51019;46.090;6.350;2022-12-19T15:42:39;17.73;;;7.05;;
64609;SDS011;51019;46.090;6.350;2022-12-19T15:45:11;24.17;;;7.20;;
64609;SDS011;51019;46.090;6.350;2022-12-19T15:47:43;17.42;;;6.13;;
64609;SDS011;51019;46.090;6.350;2022-12-19T15:50:18;17.55;;;6.72;;
64609;SDS011;51019;46.090;6.350;2022-12-19T15:52:47;16.48;;;5.75;;
64609;SDS011;51019;46.090;6.350;2022-12-19T15:55:16;18.40;;;6.60;;
64609;SDS011;51019;46.090;6.350;2022-12-19T15:57:45;15.75;;;5.85;;
64609;SDS011;51019;46.090;6.350;2022-12-19T16:00:16;17.27;;;5.65;;